sensor_id;sensor_type;location;lat;lon;timestamp;pressure;altitude;pressure_sealevel;temperature;humidity
45621;BME280;31345;51.522;10.702;2023-06-04T00:01:48;99572.16;;;7.61;99.29
45621;BME280;31345;51.522;10.702;2023-06-04T00:04:21;99565.81;;;7.66;99.13
45621;BME280;31345;51.522;10.702;2023-06-04T00:06:54;99564.91;;;7.67;98.99
45621;BME280;31345;51.522;10.702;2023-06-04T00:09:22;99565.25;;;7.60;98.56
45621;BME280;31345;51.522;10.702;2023-06-04T00:11:54;99568.63;;;7.62;96.79
45621;BME280;31345;51.522;10.702;2023-06-04T00:14:27;99572.53;;;7.51;97.67
45621;BME280;31345;51.522;10.702;2023-06-04T00:16:59;99564.56;;;7.35;98.13
45621;BME280;31345;51.522;10.702;2023-06-04T00:19:33;99569.00;;;7.33;98.67
45621;BME280;31345;51.522;10.702;2023-06-04T00:22:01;99568.50;;;7.25;98.41
45621;BME280;31345;51.522;10.702;2023-06-04T00:24:34;99570.81;;;7.12;99.70
45621;BME280;31345;51.522;10.702;2023-06-04T00:27:07;99559.97;;;7.02;100.00
45621;BME280;31345;51.522;10.702;2023-06-04T00:29:40;99564.84;;;6.89;100.00
45621;BME280;31345;51.522;10.702;2023-06-04T00:32:08;99565.81;;;6.86;100.00
45621;BME280;31345;51.522;10.702;2023-06-04T00:34:42;99569.38;;;7.04;100.00
45621;BME280;31345;51.522;10.702;2023-06-04T00:37:14;99564.88;;;7.08;100.00
45621;BME280;31345;51.522;10.702;2023-06-04T00:39:42;99561.84;;;6.98;100.00
45621;BME280;31345;51.522;10.702;2023-06-04T00:42:14;99560.56;;;6.88;100.00
45621;BME280;31345;51.522;10.702;2023-06-04T00:44:47;99559.91;;;6.83;100.00
45621;BME280;31345;51.522;10.702;2023-06-04T00:47:16;99565.63;;;6.91;100.00
45621;BME280;31345;51.522;10.702;2023-06-04T00:49:50;99569.00;;;6.93;100.00
45621;BME280;31345;51.522;10.702;2023-06-04T00:52:23;99565.63;;;6.91;100.00
45621;BME280;31345;51.522;10.702;2023-06-04T00:54:51;99566.53;;;6.90;100.00
45621;BME280;31345;51.522;10.702;2023-06-04T00:57:20;99562.88;;;6.73;100.00
45621;BME280;31345;51.522;10.702;2023-06-04T00:59:53;99569.13;;;6.48;100.00
45621;BME280;31345;51.522;10.702;2023-06-04T01:02:26;99560.63;;;6.65;100.00
45621;BME280;31345;51.522;10.702;2023-06-04T01:05:03;99556.31;;;6.64;100.00
45621;BME280;31345;51.522;10.702;2023-06-04T01:07:39;99561.91;;;6.55;100.00
45621;BME280;31345;51.522;10.702;2023-06-04T01:10:16;99563.34;;;6.62;100.00
45621;BME280;31345;51.522;10.702;2023-06-04T01:12:44;99553.13;;;6.58;100.00
45621;BME280;31345;51.522;10.702;2023-06-04T01:15:18;99553.47;;;6.50;100.00
45621;BME280;31345;51.522;10.702;2023-06-04T01:17:53;99557.03;;;6.47;100.00
45621;BME280;31345;51.522;10.702;2023-06-04T01:20:34;99555.59;;;6.40;100.00
45621;BME280;31345;51.522;10.702;2023-06-04T01:23:19;99550.19;;;6.24;100.00
45621;BME280;31345;51.522;10.702;2023-06-04T01:26:01;99556.88;;;6.30;100.00
45621;BME280;31345;51.522;10.702;2023-06-04T01:28:30;99550.63;;;6.13;100.00
45621;BME280;31345;51.522;10.702;2023-06-04T01:31:05;99547.25;;;6.11;100.00
45621;BME280;31345;51.522;10.702;2023-06-04T01:33:39;99552.28;;;6.14;100.00
45621;BME280;31345;51.522;10.702;2023-06-04T01:36:13;99552.69;;;6.05;100.00
45621;BME280;31345;51.522;10.702;2023-06-04T01:38:46;99561.00;;;6.13;100.00
45621;BME280;31345;51.522;10.702;2023-06-04T01:41:19;99558.22;;;6.18;100.00
45621;BME280;31345;51.522;10.702;2023-06-04T01:43:46;99559.44;;;6.09;100.00
45621;BME280;31345;51.522;10.702;2023-06-04T01:46:14;99560.56;;;6.01;100.00
45621;BME280;31345;51.522;10.702;2023-06-04T01:48:46;99561.59;;;5.97;100.00
45621;BME280;31345;51.522;10.702;2023-06-04T01:51:21;99554.47;;;6.02;100.00
45621;BME280;31345;51.522;10.702;2023-06-04T01:53:48;99554.06;;;5.91;100.00
45621;BME280;31345;51.522;10.702;2023-06-04T01:56:16;99549.13;;;5.85;100.00
45621;BME280;31345;51.522;10.702;2023-06-04T01:58:44;99547.72;;;5.76;100.00
45621;BME280;31345;51.522;10.702;2023-06-04T02:01:12;99555.09;;;5.87;100.00
45621;BME280;31345;51.522;10.702;2023-06-04T02:03:45;99552.31;;;5.92;100.00
45621;BME280;31345;51.522;10.702;2023-06-04T02:06:18;99549.53;;;5.96;100.00
45621;BME280;31345;51.522;10.702;2023-06-04T02:08:52;99553.88;;;5.96;100.00
45621;BME280;31345;51.522;10.702;2023-06-04T02:11:24;99553.53;;;5.83;100.00
45621;BME280;31345;51.522;10.702;2023-06-04T02:13:52;99557.28;;;5.98;100.00
45621;BME280;31345;51.522;10.702;2023-06-04T02:16:25;99554.91;;;5.92;100.00
45621;BME280;31345;51.522;10.702;2023-06-04T02:18:52;99560.91;;;5.94;100.00
45621;BME280;31345;51.522;10.702;2023-06-04T02:21:24;99562.19;;;5.82;100.00
45621;BME280;31345;51.522;10.702;2023-06-04T02:23:53;99557.25;;;5.75;100.00
45621;BME280;31345;51.522;10.702;2023-06-04T02:26:21;99557.59;;;5.66;100.00
45621;BME280;31345;51.522;10.702;2023-06-04T02:28:51;99561.03;;;5.67;100.00
45621;BME280;31345;51.522;10.702;2023-06-04T02:31:24;99553.75;;;5.76;100.00
45621;BME280;31345;51.522;10.702;2023-06-04T02:33:51;99556.03;;;5.62;100.00
45621;BME280;31345;51.522;10.702;2023-06-04T02:36:24;99550.63;;;5.44;100.00
45621;BME280;31345;51.522;10.702;2023-06-04T02:38:57;99549.31;;;5.56;100.00
45621;BME280;31345;51.522;10.702;2023-06-04T02:41:30;99554.13;;;5.67;100.00
45621;BME280;31345;51.522;10.702;2023-06-04T02:43:57;99557.47;;;5.69;100.00
45621;BME280;31345;51.522;10.702;2023-06-04T02:46:25;99551.28;;;5.73;100.00
45621;BME280;31345;51.522;10.702;2023-06-04T02:48:58;99557.94;;;5.57;100.00
45621;BME280;31345;51.522;10.702;2023-06-04T02:51:25;99554.81;;;5.48;100.00
45621;BME280;31345;51.522;10.702;2023-06-04T02:54:01;99556.88;;;5.39;100.00
45621;BME280;31345;51.522;10.702;2023-06-04T02:56:29;99561.31;;;5.36;100.00
45621;BME280;31345;51.522;10.702;2023-06-04T02:59:01;99564.50;;;5.43;100.00
45621;BME280;31345;51.522;10.702;2023-06-04T03:01:35;99559.44;;;5.40;100.00
45621;BME280;31345;51.522;10.702;2023-06-04T03:04:07;99560.78;;;5.50;100.00
45621;BME280;31345;51.522;10.702;2023-06-04T03:06:41;99565.91;;;5.52;100.00
45621;BME280;31345;51.522;10.702;2023-06-04T03:09:17;99567.66;;;5.52;100.00
45621;BME280;31345;51.522;10.702;2023-06-04T03:11:45;99565.06;;;5.52;100.00
45621;BME280;31345;51.522;10.702;2023-06-04T03:14:12;99565.53;;;5.39;100.00
45621;BME280;31345;51.522;10.702;2023-06-04T03:16:45;99558.94;;;5.05;100.00
45621;BME280;31345;51.522;10.702;2023-06-04T03:19:18;99567.53;;;5.07;100.00
45621;BME280;31345;51.522;10.702;2023-06-04T03:21:45;99568.06;;;5.17;100.00
45621;BME280;31345;51.522;10.702;2023-06-04T03:24:23;99577.03;;;5.32;100.00
45621;BME280;31345;51.522;10.702;2023-06-04T03:26:51;99582.19;;;5.32;100.00
45621;BME280;31345;51.522;10.702;2023-06-04T03:29:23;99577.59;;;5.40;100.00
45621;BME280;31345;51.522;10.702;2023-06-04T03:31:52;99583.44;;;5.45;100.00
45621;BME280;31345;51.522;10.702;2023-06-04T03:34:26;99574.59;;;5.51;100.00
45621;BME280;31345;51.522;10.702;2023-06-04T03:36:54;99588.16;;;5.34;100.00
45621;BME280;31345;51.522;10.702;2023-06-04T03:39:28;99578.50;;;5.39;100.00
45621;BME280;31345;51.522;10.702;2023-06-04T03:42:01;99583.38;;;5.47;100.00
45621;BME280;31345;51.522;10.702;2023-06-04T03:44:29;99584.50;;;5.16;100.00
45621;BME280;31345;51.522;10.702;2023-06-04T03:46:57;99579.00;;;5.00;100.00
45621;BME280;31345;51.522;10.702;2023-06-04T03:49:30;99583.97;;;5.06;100.00
45621;BME280;31345;51.522;10.702;2023-06-04T03:52:03;99582.47;;;5.24;100.00
45621;BME280;31345;51.522;10.702;2023-06-04T03:54:33;99583.78;;;5.36;100.00
45621;BME280;31345;51.522;10.702;2023-06-04T03:57:00;99588.91;;;5.37;100.00
45621;BME280;31345;51.522;10.702;2023-06-04T03:59:33;99583.69;;;5.39;100.00
45621;BME280;31345;51.522;10.702;2023-06-04T04:02:01;99582.81;;;5.39;100.00
45621;BME280;31345;51.522;10.702;2023-06-04T04:04:34;99585.94;;;5.48;100.00
45621;BME280;31345;51.522;10.702;2023-06-04T04:07:02;99591.72;;;5.31;100.00
45621;BME280;31345;51.522;10.702;2023-06-04T04:09:36;99581.75;;;5.20;100.00
45621;BME280;31345;51.522;10.702;2023-06-04T04:12:08;99590.38;;;5.21;100.00
45621;BME280;31345;51.522;10.702;2023-06-04T04:14:36;99586.59;;;5.30;100.00
45621;BME280;31345;51.522;10.702;2023-06-04T04:17:04;99587.97;;;5.40;100.00
45621;BME280;31345;51.522;10.702;2023-06-04T04:19:31;99592.84;;;5.48;100.00
45621;BME280;31345;51.522;10.702;2023-06-04T04:21:59;99589.25;;;5.52;100.00
45621;BME280;31345;51.522;10.702;2023-06-04T04:24:32;99584.50;;;5.63;100.00
45621;BME280;31345;51.522;10.702;2023-06-04T04:27:10;99583.47;;;5.68;100.00
45621;BME280;31345;51.522;10.702;2023-06-04T04:29:45;99583.47;;;5.68;100.00
45621;BME280;31345;51.522;10.702;2023-06-04T04:32:14;99574.00;;;5.67;100.00
45621;BME280;31345;51.522;10.702;2023-06-04T04:34:51;99582.25;;;5.78;100.00
45621;BME280;31345;51.522;10.702;2023-06-04T04:37:23;99580.78;;;5.93;100.00
45621;BME280;31345;51.522;10.702;2023-06-04T04:39:58;99583.22;;;6.20;100.00
45621;BME280;31345;51.522;10.702;2023-06-04T04:42:36;99583.56;;;6.56;100.00
45621;BME280;31345;51.522;10.702;2023-06-04T04:45:07;99584.97;;;7.04;100.00
45621;BME280;31345;51.522;10.702;2023-06-04T04:47:34;99575.59;;;7.61;100.00
45621;BME280;31345;51.522;10.702;2023-06-04T04:50:02;99573.50;;;8.06;99.22
45621;BME280;31345;51.522;10.702;2023-06-04T04:52:30;99574.47;;;8.58;96.99
45621;BME280;31345;51.522;10.702;2023-06-04T04:55:03;99577.00;;;8.95;94.18
45621;BME280;31345;51.522;10.702;2023-06-04T04:57:40;99582.72;;;9.20;93.69
45621;BME280;31345;51.522;10.702;2023-06-04T05:00:14;99581.66;;;9.40;92.20
45621;BME280;31345;51.522;10.702;2023-06-04T05:05:38;99585.13;;;9.57;96.63
45621;BME280;31345;51.522;10.702;2023-06-04T05:08:11;99585.56;;;9.81;95.74
45621;BME280;31345;51.522;10.702;2023-06-04T05:10:41;99584.94;;;10.10;95.34
45621;BME280;31345;51.522;10.702;2023-06-04T05:13:16;99586.56;;;10.27;92.18
45621;BME280;31345;51.522;10.702;2023-06-04T05:15:58;99575.84;;;10.48;91.30
45621;BME280;31345;51.522;10.702;2023-06-04T05:18:33;99584.50;;;10.48;94.19
45621;BME280;31345;51.522;10.702;2023-06-04T05:21:08;99586.72;;;10.71;93.72
45621;BME280;31345;51.522;10.702;2023-06-04T05:23:47;99584.16;;;11.00;93.21
45621;BME280;31345;51.522;10.702;2023-06-04T05:26:21;99587.91;;;11.25;92.02
45621;BME280;31345;51.522;10.702;2023-06-04T05:28:51;99585.47;;;11.51;89.71
45621;BME280;31345;51.522;10.702;2023-06-04T05:31:19;99581.25;;;11.63;89.18
45621;BME280;31345;51.522;10.702;2023-06-04T05:33:52;99596.09;;;11.77;92.50
45621;BME280;31345;51.522;10.702;2023-06-04T05:36:27;99588.63;;;12.00;90.55
45621;BME280;31345;51.522;10.702;2023-06-04T05:38:59;99588.00;;;12.37;81.65
45621;BME280;31345;51.522;10.702;2023-06-04T05:41:39;99582.06;;;12.48;81.09
45621;BME280;31345;51.522;10.702;2023-06-04T05:44:13;99586.28;;;12.63;79.71
45621;BME280;31345;51.522;10.702;2023-06-04T05:46:46;99587.03;;;12.78;78.31
45621;BME280;31345;51.522;10.702;2023-06-04T05:49:15;99584.44;;;13.04;77.19
45621;BME280;31345;51.522;10.702;2023-06-04T05:51:49;99580.75;;;13.20;76.54
45621;BME280;31345;51.522;10.702;2023-06-04T05:54:18;99584.41;;;13.43;77.39
45621;BME280;31345;51.522;10.702;2023-06-04T05:56:45;99594.72;;;13.59;76.37
45621;BME280;31345;51.522;10.702;2023-06-04T05:59:14;99590.50;;;13.57;75.11
45621;BME280;31345;51.522;10.702;2023-06-04T06:01:48;99591.34;;;13.57;75.52
45621;BME280;31345;51.522;10.702;2023-06-04T06:04:21;99594.72;;;13.59;75.40
45621;BME280;31345;51.522;10.702;2023-06-04T06:06:54;99591.19;;;13.85;73.07
45621;BME280;31345;51.522;10.702;2023-06-04T06:09:27;99592.63;;;14.13;73.88
45621;BME280;31345;51.522;10.702;2023-06-04T06:12:00;99597.50;;;14.31;77.19
45621;BME280;31345;51.522;10.702;2023-06-04T06:14:34;99606.31;;;14.55;77.25
45621;BME280;31345;51.522;10.702;2023-06-04T06:17:07;99599.28;;;14.55;76.04
45621;BME280;31345;51.522;10.702;2023-06-04T06:19:40;99604.38;;;14.81;75.00
45621;BME280;31345;51.522;10.702;2023-06-04T06:22:13;99607.53;;;14.98;74.93
45621;BME280;31345;51.522;10.702;2023-06-04T06:24:46;99600.06;;;15.16;72.55
45621;BME280;31345;51.522;10.702;2023-06-04T06:27:15;99602.31;;;15.21;70.43
45621;BME280;31345;51.522;10.702;2023-06-04T06:29:49;99605.94;;;15.31;72.54
45621;BME280;31345;51.522;10.702;2023-06-04T06:32:22;99610.25;;;15.55;70.45
45621;BME280;31345;51.522;10.702;2023-06-04T06:34:54;99607.66;;;15.88;69.33
45621;BME280;31345;51.522;10.702;2023-06-04T06:37:27;99604.78;;;15.91;68.23
45621;BME280;31345;51.522;10.702;2023-06-04T06:39:59;99609.69;;;16.07;68.52
45621;BME280;31345;51.522;10.702;2023-06-04T06:42:32;99615.38;;;16.35;69.94
45621;BME280;31345;51.522;10.702;2023-06-04T06:45:07;99606.22;;;16.51;62.79
45621;BME280;31345;51.522;10.702;2023-06-04T06:47:39;99612.22;;;16.74;62.03
45621;BME280;31345;51.522;10.702;2023-06-04T06:50:12;99618.59;;;16.93;60.11
45621;BME280;31345;51.522;10.702;2023-06-04T06:52:45;99616.72;;;17.05;58.78
45621;BME280;31345;51.522;10.702;2023-06-04T06:55:17;99618.91;;;17.00;55.41
45621;BME280;31345;51.522;10.702;2023-06-04T06:57:50;99627.09;;;17.18;56.34
45621;BME280;31345;51.522;10.702;2023-06-04T07:00:26;99623.06;;;17.23;54.52
45621;BME280;31345;51.522;10.702;2023-06-04T07:02:58;99628.94;;;17.27;55.77
45621;BME280;31345;51.522;10.702;2023-06-04T07:05:31;99620.91;;;17.39;53.64
45621;BME280;31345;51.522;10.702;2023-06-04T07:08:04;99618.50;;;17.57;55.21
45621;BME280;31345;51.522;10.702;2023-06-04T07:10:36;99631.00;;;17.45;53.88
45621;BME280;31345;51.522;10.702;2023-06-04T07:13:09;99625.66;;;17.66;55.61
45621;BME280;31345;51.522;10.702;2023-06-04T07:15:43;99622.75;;;17.79;49.37
45621;BME280;31345;51.522;10.702;2023-06-04T07:18:15;99624.47;;;17.80;52.15
45621;BME280;31345;51.522;10.702;2023-06-04T07:20:48;99627.19;;;17.69;49.98
45621;BME280;31345;51.522;10.702;2023-06-04T07:23:20;99631.91;;;17.65;54.51
45621;BME280;31345;51.522;10.702;2023-06-04T07:25:53;99633.94;;;17.93;53.17
45621;BME280;31345;51.522;10.702;2023-06-04T07:28:25;99629.66;;;18.11;52.16
45621;BME280;31345;51.522;10.702;2023-06-04T07:31:00;99624.94;;;18.05;50.51
45621;BME280;31345;51.522;10.702;2023-06-04T07:33:33;99635.66;;;18.13;52.40
45621;BME280;31345;51.522;10.702;2023-06-04T07:36:05;99628.00;;;18.30;50.03
45621;BME280;31345;51.522;10.702;2023-06-04T07:38:38;99625.38;;;18.50;52.27
45621;BME280;31345;51.522;10.702;2023-06-04T07:41:10;99631.56;;;18.60;50.19
45621;BME280;31345;51.522;10.702;2023-06-04T07:43:43;99624.69;;;18.68;49.93
45621;BME280;31345;51.522;10.702;2023-06-04T07:46:17;99620.34;;;18.86;48.55
45621;BME280;31345;51.522;10.702;2023-06-04T07:48:50;99625.25;;;18.91;47.14
45621;BME280;31345;51.522;10.702;2023-06-04T07:51:22;99622.78;;;19.27;46.83
45621;BME280;31345;51.522;10.702;2023-06-04T07:53:56;99627.88;;;19.59;47.55
45621;BME280;31345;51.522;10.702;2023-06-04T07:56:24;99622.09;;;19.53;47.78
45621;BME280;31345;51.522;10.702;2023-06-04T07:58:56;99624.16;;;19.32;47.03
45621;BME280;31345;51.522;10.702;2023-06-04T08:01:30;99625.53;;;19.36;45.41
45621;BME280;31345;51.522;10.702;2023-06-04T08:04:03;99624.50;;;19.47;46.90
45621;BME280;31345;51.522;10.702;2023-06-04T08:06:30;99626.88;;;19.50;43.81
45621;BME280;31345;51.522;10.702;2023-06-04T08:09:03;99621.94;;;19.65;43.13
45621;BME280;31345;51.522;10.702;2023-06-04T08:11:36;99626.59;;;19.53;41.46
45621;BME280;31345;51.522;10.702;2023-06-04T08:14:08;99617.72;;;19.72;42.34
45621;BME280;31345;51.522;10.702;2023-06-04T08:16:37;99622.91;;;19.74;41.39
45621;BME280;31345;51.522;10.702;2023-06-04T08:19:10;99618.03;;;19.69;41.57
45621;BME280;31345;51.522;10.702;2023-06-04T08:21:37;99617.63;;;19.64;42.22
45621;BME280;31345;51.522;10.702;2023-06-04T08:24:11;99626.25;;;19.94;45.71
45621;BME280;31345;51.522;10.702;2023-06-04T08:26:44;99620.19;;;19.84;41.87
45621;BME280;31345;51.522;10.702;2023-06-04T08:29:16;99619.56;;;19.90;43.53
45621;BME280;31345;51.522;10.702;2023-06-04T08:31:51;99617.94;;;20.07;41.97
45621;BME280;31345;51.522;10.702;2023-06-04T08:34:23;99625.63;;;20.28;43.00
45621;BME280;31345;51.522;10.702;2023-06-04T08:36:56;99618.94;;;20.42;42.69
45621;BME280;31345;51.522;10.702;2023-06-04T08:39:28;99619.72;;;20.16;39.59
45621;BME280;31345;51.522;10.702;2023-06-04T08:42:04;99622.53;;;20.33;41.81
45621;BME280;31345;51.522;10.702;2023-06-04T08:44:39;99621.91;;;20.39;41.33
45621;BME280;31345;51.522;10.702;2023-06-04T08:47:15;99619.31;;;20.48;40.14
45621;BME280;31345;51.522;10.702;2023-06-04T08:49:45;99621.38;;;20.54;39.55
45621;BME280;31345;51.522;10.702;2023-06-04T08:52:20;99615.03;;;20.91;39.51
45621;BME280;31345;51.522;10.702;2023-06-04T08:54:49;99617.53;;;20.66;38.64
45621;BME280;31345;51.522;10.702;2023-06-04T08:57:22;99622.97;;;20.65;39.63
45621;BME280;31345;51.522;10.702;2023-06-04T08:59:54;99616.47;;;20.59;40.90
45621;BME280;31345;51.522;10.702;2023-06-04T09:02:27;99618.47;;;20.83;41.70
45621;BME280;31345;51.522;10.702;2023-06-04T09:04:59;99620.50;;;21.16;39.45
45621;BME280;31345;51.522;10.702;2023-06-04T09:07:30;99618.03;;;21.15;37.33
45621;BME280;31345;51.522;10.702;2023-06-04T09:10:06;99614.38;;;21.16;36.90
45621;BME280;31345;51.522;10.702;2023-06-04T09:12:42;99610.31;;;21.65;38.95
45621;BME280;31345;51.522;10.702;2023-06-04T09:15:15;99617.69;;;21.79;39.17
45621;BME280;31345;51.522;10.702;2023-06-04T09:17:49;99617.41;;;21.99;38.81
45621;BME280;31345;51.522;10.702;2023-06-04T09:20:20;99613.66;;;21.67;37.55
45621;BME280;31345;51.522;10.702;2023-06-04T09:22:48;99611.94;;;21.57;38.12
45621;BME280;31345;51.522;10.702;2023-06-04T09:25:20;99612.34;;;21.71;41.39
45621;BME280;31345;51.522;10.702;2023-06-04T09:27:53;99617.94;;;21.59;37.11
45621;BME280;31345;51.522;10.702;2023-06-04T09:30:26;99613.84;;;21.39;33.84
45621;BME280;31345;51.522;10.702;2023-06-04T09:33:06;99611.47;;;21.62;36.44
45621;BME280;31345;51.522;10.702;2023-06-04T09:35:39;99616.84;;;21.79;36.84
45621;BME280;31345;51.522;10.702;2023-06-04T09:38:07;99614.19;;;21.87;33.00
45621;BME280;31345;51.522;10.702;2023-06-04T09:40:40;99607.25;;;22.03;36.06
45621;BME280;31345;51.522;10.702;2023-06-04T09:43:21;99624.59;;;22.23;37.31
45621;BME280;31345;51.522;10.702;2023-06-04T09:45:53;99628.22;;;21.97;37.19
45621;BME280;31345;51.522;10.702;2023-06-04T09:48:27;99615.72;;;22.06;34.13
45621;BME280;31345;51.522;10.702;2023-06-04T09:51:06;99623.56;;;22.08;34.74
45621;BME280;31345;51.522;10.702;2023-06-04T09:53:39;99618.94;;;22.18;35.29
45621;BME280;31345;51.522;10.702;2023-06-04T09:56:12;99611.28;;;22.32;31.77
45621;BME280;31345;51.522;10.702;2023-06-04T09:58:46;99609.81;;;22.54;34.29
45621;BME280;31345;51.522;10.702;2023-06-04T10:01:22;99604.34;;;22.47;31.55
45621;BME280;31345;51.522;10.702;2023-06-04T10:03:58;99613.13;;;22.23;33.86
45621;BME280;31345;51.522;10.702;2023-06-04T10:06:34;99608.00;;;22.55;32.55
45621;BME280;31345;51.522;10.702;2023-06-04T10:09:04;99607.00;;;22.81;32.35
45621;BME280;31345;51.522;10.702;2023-06-04T10:11:40;99600.75;;;23.13;31.51
45621;BME280;31345;51.522;10.702;2023-06-04T10:14:15;99613.81;;;22.67;32.91
45621;BME280;31345;51.522;10.702;2023-06-04T10:16:47;99612.50;;;22.87;36.19
45621;BME280;31345;51.522;10.702;2023-06-04T10:19:18;99613.31;;;22.71;32.09
45621;BME280;31345;51.522;10.702;2023-06-04T10:21:50;99608.47;;;22.33;34.59
45621;BME280;31345;51.522;10.702;2023-06-04T10:24:20;99611.84;;;22.60;36.34
45621;BME280;31345;51.522;10.702;2023-06-04T10:26:54;99606.00;;;22.48;33.75
45621;BME280;31345;51.522;10.702;2023-06-04T10:29:30;99602.03;;;22.61;31.46
45621;BME280;31345;51.522;10.702;2023-06-04T10:32:03;99609.97;;;23.02;34.26
45621;BME280;31345;51.522;10.702;2023-06-04T10:34:37;99609.59;;;23.14;35.37
45621;BME280;31345;51.522;10.702;2023-06-04T10:37:18;99601.28;;;23.25;30.58
45621;BME280;31345;51.522;10.702;2023-06-04T10:39:52;99598.25;;;23.28;30.61
45621;BME280;31345;51.522;10.702;2023-06-04T10:42:20;99603.22;;;23.40;34.05
45621;BME280;31345;51.522;10.702;2023-06-04T10:44:54;99596.94;;;23.64;35.95
45621;BME280;31345;51.522;10.702;2023-06-04T10:47:28;99590.81;;;23.56;30.40
45621;BME280;31345;51.522;10.702;2023-06-04T10:50:08;99595.84;;;23.50;33.17
45621;BME280;31345;51.522;10.702;2023-06-04T10:52:51;99591.53;;;23.49;30.45
45621;BME280;31345;51.522;10.702;2023-06-04T10:55:23;99597.31;;;23.53;33.02
45621;BME280;31345;51.522;10.702;2023-06-04T10:57:58;99592.06;;;23.68;29.76
45621;BME280;31345;51.522;10.702;2023-06-04T11:00:35;99594.81;;;23.51;29.78
45621;BME280;31345;51.522;10.702;2023-06-04T11:03:10;99592.34;;;23.50;34.87
45621;BME280;31345;51.522;10.702;2023-06-04T11:05:45;99593.34;;;23.80;30.88
45621;BME280;31345;51.522;10.702;2023-06-04T11:08:26;99596.03;;;24.12;30.34
45621;BME280;31345;51.522;10.702;2023-06-04T11:11:10;99590.59;;;23.65;28.57
45621;BME280;31345;51.522;10.702;2023-06-04T11:13:43;99584.41;;;23.33;31.76
45621;BME280;31345;51.522;10.702;2023-06-04T11:16:17;99579.78;;;23.02;31.17
45621;BME280;31345;51.522;10.702;2023-06-04T11:18:56;99587.44;;;23.05;32.13
45621;BME280;31345;51.522;10.702;2023-06-04T11:21:34;99585.91;;;23.19;33.99
45621;BME280;31345;51.522;10.702;2023-06-04T11:24:07;99603.84;;;23.50;32.26
45621;BME280;31345;51.522;10.702;2023-06-04T11:26:36;99577.06;;;23.67;32.11
45621;BME280;31345;51.522;10.702;2023-06-04T11:29:10;99589.47;;;23.91;33.83
45621;BME280;31345;51.522;10.702;2023-06-04T11:31:47;99586.63;;;23.61;31.90
45621;BME280;31345;51.522;10.702;2023-06-04T11:34:23;99578.97;;;23.90;32.54
45621;BME280;31345;51.522;10.702;2023-06-04T11:37:07;99579.19;;;24.03;32.00
45621;BME280;31345;51.522;10.702;2023-06-04T11:39:40;99570.25;;;24.43;33.18
45621;BME280;31345;51.522;10.702;2023-06-04T11:42:15;99573.69;;;24.52;30.21
45621;BME280;31345;51.522;10.702;2023-06-04T11:44:49;99575.44;;;24.21;33.11
45621;BME280;31345;51.522;10.702;2023-06-04T11:47:22;99579.16;;;24.12;34.42
45621;BME280;31345;51.522;10.702;2023-06-04T11:49:54;99575.00;;;24.33;32.39
45621;BME280;31345;51.522;10.702;2023-06-04T11:52:28;99561.22;;;24.44;30.49
45621;BME280;31345;51.522;10.702;2023-06-04T11:55:01;99567.94;;;24.40;31.99
45621;BME280;31345;51.522;10.702;2023-06-04T11:57:33;99576.59;;;23.63;30.38
45621;BME280;31345;51.522;10.702;2023-06-04T12:00:08;99571.97;;;23.89;33.11
45621;BME280;31345;51.522;10.702;2023-06-04T12:02:49;99567.34;;;24.53;31.53
45621;BME280;31345;51.522;10.702;2023-06-04T12:05:29;99565.69;;;24.67;31.63
45621;BME280;31345;51.522;10.702;2023-06-04T12:08:07;99559.50;;;24.66;31.61
45621;BME280;31345;51.522;10.702;2023-06-04T12:10:41;99559.50;;;24.51;33.20
45621;BME280;31345;51.522;10.702;2023-06-04T12:13:14;99566.38;;;24.84;30.27
45621;BME280;31345;51.522;10.702;2023-06-04T12:15:41;99562.66;;;24.55;31.48
45621;BME280;31345;51.522;10.702;2023-06-04T12:18:23;99553.28;;;24.74;30.26
45621;BME280;31345;51.522;10.702;2023-06-04T12:20:55;99550.25;;;25.07;32.83
45621;BME280;31345;51.522;10.702;2023-06-04T12:23:30;99549.06;;;24.41;29.66
45621;BME280;31345;51.522;10.702;2023-06-04T12:26:02;99556.88;;;24.81;31.80
45621;BME280;31345;51.522;10.702;2023-06-04T12:28:30;99559.91;;;24.63;31.08
45621;BME280;31345;51.522;10.702;2023-06-04T12:31:03;99554.75;;;24.77;32.71
45621;BME280;31345;51.522;10.702;2023-06-04T12:33:35;99547.59;;;24.92;29.16
45621;BME280;31345;51.522;10.702;2023-06-04T12:36:08;99545.84;;;25.00;31.75
45621;BME280;31345;51.522;10.702;2023-06-04T12:38:37;99545.16;;;24.82;28.71
45621;BME280;31345;51.522;10.702;2023-06-04T12:41:09;99552.22;;;24.45;31.01
45621;BME280;31345;51.522;10.702;2023-06-04T12:43:42;99549.53;;;24.45;33.93
45621;BME280;31345;51.522;10.702;2023-06-04T12:46:14;99549.56;;;24.60;32.12
45621;BME280;31345;51.522;10.702;2023-06-04T12:48:42;99550.97;;;24.71;32.91
45621;BME280;31345;51.522;10.702;2023-06-04T12:51:14;99553.03;;;24.99;32.77
45621;BME280;31345;51.522;10.702;2023-06-04T12:53:48;99543.78;;;25.17;31.66
45621;BME280;31345;51.522;10.702;2023-06-04T12:56:20;99552.69;;;24.87;31.94
45621;BME280;31345;51.522;10.702;2023-06-04T12:58:53;99552.91;;;25.23;30.80
45621;BME280;31345;51.522;10.702;2023-06-04T13:01:25;99548.25;;;25.10;31.99
45621;BME280;31345;51.522;10.702;2023-06-04T13:03:58;99542.13;;;25.16;29.64
45621;BME280;31345;51.522;10.702;2023-06-04T13:06:30;99548.69;;;25.13;31.61
45621;BME280;31345;51.522;10.702;2023-06-04T13:09:05;99542.25;;;24.92;32.35
45621;BME280;31345;51.522;10.702;2023-06-04T13:11:42;99537.63;;;25.16;31.22
45621;BME280;31345;51.522;10.702;2023-06-04T13:14:11;99542.78;;;25.33;31.53
45621;BME280;31345;51.522;10.702;2023-06-04T13:16:43;99528.56;;;25.32;30.41
45621;BME280;31345;51.522;10.702;2023-06-04T13:19:16;99533.84;;;25.11;28.72
45621;BME280;31345;51.522;10.702;2023-06-04T13:21:50;99524.06;;;25.18;27.28